sensor_id;sensor_type;location;lat;lon;timestamp;temperature;humidity
16532;DHT22;8378;57.698;11.958;2022-09-09T00:02:27;23.60;25.30
16532;DHT22;8378;57.698;11.958;2022-09-09T00:05:17;23.50;25.30
16532;DHT22;8378;57.698;11.958;2022-09-09T00:07:50;23.60;25.30
16532;DHT22;8378;57.698;11.958;2022-09-09T00:10:32;23.50;25.30
16532;DHT22;8378;57.698;11.958;2022-09-09T00:15:59;23.50;25.30
16532;DHT22;8378;57.698;11.958;2022-09-09T00:19:05;23.50;25.40
16532;DHT22;8378;57.698;11.958;2022-09-09T00:21:38;23.50;25.40
16532;DHT22;8378;57.698;11.958;2022-09-09T00:24:44;23.50;25.40
16532;DHT22;8378;57.698;11.958;2022-09-09T00:27:25;23.50;25.50
16532;DHT22;8378;57.698;11.958;2022-09-09T00:30:22;23.50;25.50
16532;DHT22;8378;57.698;11.958;2022-09-09T00:32:50;23.50;25.50
16532;DHT22;8378;57.698;11.958;2022-09-09T00:35:27;23.50;25.50
16532;DHT22;8378;57.698;11.958;2022-09-09T00:37:57;23.40;25.40
16532;DHT22;8378;57.698;11.958;2022-09-09T00:40:35;23.40;25.40
16532;DHT22;8378;57.698;11.958;2022-09-09T00:43:24;23.40;25.40
16532;DHT22;8378;57.698;11.958;2022-09-09T00:48:31;23.40;25.40
16532;DHT22;8378;57.698;11.958;2022-09-09T00:51:06;23.40;25.40
16532;DHT22;8378;57.698;11.958;2022-09-09T00:53:38;23.40;25.40
16532;DHT22;8378;57.698;11.958;2022-09-09T00:56:14;23.40;25.40
16532;DHT22;8378;57.698;11.958;2022-09-09T00:58:53;23.40;25.20
16532;DHT22;8378;57.698;11.958;2022-09-09T01:01:23;23.40;25.40
16532;DHT22;8378;57.698;11.958;2022-09-09T01:03:53;23.40;25.80
16532;DHT22;8378;57.698;11.958;2022-09-09T01:06:30;23.40;25.40
16532;DHT22;8378;57.698;11.958;2022-09-09T01:09:17;23.40;25.30
16532;DHT22;8378;57.698;11.958;2022-09-09T01:12:09;23.40;25.40
16532;DHT22;8378;57.698;11.958;2022-09-09T01:14:39;23.40;25.50
16532;DHT22;8378;57.698;11.958;2022-09-09T01:25:22;23.30;25.50
16532;DHT22;8378;57.698;11.958;2022-09-09T01:27:56;23.30;25.40
16532;DHT22;8378;57.698;11.958;2022-09-09T01:30:23;23.30;25.50
16532;DHT22;8378;57.698;11.958;2022-09-09T01:32:56;23.30;25.40
16532;DHT22;8378;57.698;11.958;2022-09-09T01:38:20;23.30;25.50
16532;DHT22;8378;57.698;11.958;2022-09-09T01:40:47;23.30;25.50
16532;DHT22;8378;57.698;11.958;2022-09-09T01:43:13;23.30;25.50
16532;DHT22;8378;57.698;11.958;2022-09-09T01:45:40;23.30;25.40
16532;DHT22;8378;57.698;11.958;2022-09-09T01:48:08;23.30;25.40
16532;DHT22;8378;57.698;11.958;2022-09-09T01:50:34;23.30;25.50
16532;DHT22;8378;57.698;11.958;2022-09-09T01:53:01;23.30;25.50
16532;DHT22;8378;57.698;11.958;2022-09-09T01:55:38;23.20;25.40
16532;DHT22;8378;57.698;11.958;2022-09-09T02:01:17;23.30;25.40
16532;DHT22;8378;57.698;11.958;2022-09-09T02:03:52;23.30;25.40
16532;DHT22;8378;57.698;11.958;2022-09-09T02:06:36;23.30;25.30
16532;DHT22;8378;57.698;11.958;2022-09-09T02:09:06;23.20;25.30
16532;DHT22;8378;57.698;11.958;2022-09-09T02:11:33;23.30;25.30
16532;DHT22;8378;57.698;11.958;2022-09-09T02:14:10;23.30;25.40
16532;DHT22;8378;57.698;11.958;2022-09-09T02:16:50;23.30;25.40
16532;DHT22;8378;57.698;11.958;2022-09-09T02:19:27;23.30;25.40
16532;DHT22;8378;57.698;11.958;2022-09-09T02:21:57;23.30;25.40
16532;DHT22;8378;57.698;11.958;2022-09-09T02:24:25;23.30;25.40
16532;DHT22;8378;57.698;11.958;2022-09-09T02:26:53;23.30;25.40
16532;DHT22;8378;57.698;11.958;2022-09-09T02:29:33;23.30;25.40
16532;DHT22;8378;57.698;11.958;2022-09-09T02:32:02;23.30;25.40
16532;DHT22;8378;57.698;11.958;2022-09-09T02:34:30;23.30;25.40
16532;DHT22;8378;57.698;11.958;2022-09-09T02:36:59;23.30;25.30
16532;DHT22;8378;57.698;11.958;2022-09-09T02:39:25;23.30;25.40
16532;DHT22;8378;57.698;11.958;2022-09-09T02:41:51;23.30;25.30
16532;DHT22;8378;57.698;11.958;2022-09-09T02:44:18;23.30;25.30
16532;DHT22;8378;57.698;11.958;2022-09-09T02:55:26;23.30;25.30
16532;DHT22;8378;57.698;11.958;2022-09-09T02:57:55;23.30;25.30
16532;DHT22;8378;57.698;11.958;2022-09-09T03:00:24;23.30;25.30
16532;DHT22;8378;57.698;11.958;2022-09-09T03:02:50;23.30;25.40
16532;DHT22;8378;57.698;11.958;2022-09-09T03:05:16;23.30;25.40
16532;DHT22;8378;57.698;11.958;2022-09-09T03:07:42;23.30;25.40
16532;DHT22;8378;57.698;11.958;2022-09-09T03:10:08;23.30;25.40
16532;DHT22;8378;57.698;11.958;2022-09-09T03:12:34;23.30;25.40
16532;DHT22;8378;57.698;11.958;2022-09-09T03:14:59;23.30;25.40
16532;DHT22;8378;57.698;11.958;2022-09-09T03:17:25;23.30;25.40
16532;DHT22;8378;57.698;11.958;2022-09-09T03:19:53;23.30;25.40
16532;DHT22;8378;57.698;11.958;2022-09-09T03:22:20;23.30;25.40
16532;DHT22;8378;57.698;11.958;2022-09-09T03:24:46;23.30;25.40
16532;DHT22;8378;57.698;11.958;2022-09-09T03:27:12;23.30;25.30
16532;DHT22;8378;57.698;11.958;2022-09-09T03:29:39;23.30;25.40
16532;DHT22;8378;57.698;11.958;2022-09-09T03:32:05;23.30;25.30
16532;DHT22;8378;57.698;11.958;2022-09-09T03:34:31;23.30;25.40
16532;DHT22;8378;57.698;11.958;2022-09-09T03:36:56;23.30;25.40
16532;DHT22;8378;57.698;11.958;2022-09-09T03:39:22;23.40;25.40
16532;DHT22;8378;57.698;11.958;2022-09-09T03:41:48;23.30;25.40
16532;DHT22;8378;57.698;11.958;2022-09-09T03:44:14;23.30;25.40
16532;DHT22;8378;57.698;11.958;2022-09-09T03:46:40;23.40;25.40
16532;DHT22;8378;57.698;11.958;2022-09-09T03:49:05;23.40;25.80
16532;DHT22;8378;57.698;11.958;2022-09-09T03:51:31;23.40;25.40
16532;DHT22;8378;57.698;11.958;2022-09-09T03:53:57;23.40;25.40
16532;DHT22;8378;57.698;11.958;2022-09-09T03:56:24;23.40;25.40
16532;DHT22;8378;57.698;11.958;2022-09-09T03:58:50;23.40;25.40
16532;DHT22;8378;57.698;11.958;2022-09-09T04:01:15;23.40;25.40
16532;DHT22;8378;57.698;11.958;2022-09-09T04:03:43;23.40;25.40
16532;DHT22;8378;57.698;11.958;2022-09-09T04:06:11;23.40;25.50
16532;DHT22;8378;57.698;11.958;2022-09-09T04:08:37;23.40;25.40
16532;DHT22;8378;57.698;11.958;2022-09-09T04:11:04;23.40;25.40
16532;DHT22;8378;57.698;11.958;2022-09-09T04:13:33;23.40;25.40
16532;DHT22;8378;57.698;11.958;2022-09-09T04:16:00;23.40;25.40
16532;DHT22;8378;57.698;11.958;2022-09-09T04:18:26;23.40;25.50
16532;DHT22;8378;57.698;11.958;2022-09-09T04:20:54;23.40;25.50
16532;DHT22;8378;57.698;11.958;2022-09-09T04:23:22;23.40;25.50
16532;DHT22;8378;57.698;11.958;2022-09-09T04:25:53;23.40;25.50
16532;DHT22;8378;57.698;11.958;2022-09-09T04:28:21;23.40;25.50
16532;DHT22;8378;57.698;11.958;2022-09-09T04:30:47;23.40;25.50
16532;DHT22;8378;57.698;11.958;2022-09-09T04:33:13;23.40;25.50
16532;DHT22;8378;57.698;11.958;2022-09-09T04:35:44;23.40;25.50
16532;DHT22;8378;57.698;11.958;2022-09-09T04:38:11;23.40;25.50
16532;DHT22;8378;57.698;11.958;2022-09-09T04:40:37;23.40;25.50
16532;DHT22;8378;57.698;11.958;2022-09-09T04:43:05;23.40;25.50
16532;DHT22;8378;57.698;11.958;2022-09-09T04:45:31;23.40;25.40
16532;DHT22;8378;57.698;11.958;2022-09-09T04:47:57;23.40;25.50
16532;DHT22;8378;57.698;11.958;2022-09-09T04:50:23;23.40;25.50
16532;DHT22;8378;57.698;11.958;2022-09-09T04:52:48;23.40;25.90
16532;DHT22;8378;57.698;11.958;2022-09-09T04:55:14;23.40;25.50
16532;DHT22;8378;57.698;11.958;2022-09-09T04:57:40;23.40;25.50
16532;DHT22;8378;57.698;11.958;2022-09-09T05:00:07;23.40;25.50
16532;DHT22;8378;57.698;11.958;2022-09-09T05:02:36;23.40;25.50
16532;DHT22;8378;57.698;11.958;2022-09-09T05:05:03;23.40;25.50
16532;DHT22;8378;57.698;11.958;2022-09-09T05:07:28;23.40;25.50
16532;DHT22;8378;57.698;11.958;2022-09-09T05:09:57;23.40;25.50
16532;DHT22;8378;57.698;11.958;2022-09-09T05:12:23;23.40;25.50
16532;DHT22;8378;57.698;11.958;2022-09-09T05:14:51;23.40;25.50
16532;DHT22;8378;57.698;11.958;2022-09-09T05:17:16;23.40;25.60
16532;DHT22;8378;57.698;11.958;2022-09-09T05:19:42;23.40;26.10
16532;DHT22;8378;57.698;11.958;2022-09-09T05:22:08;23.40;25.60
16532;DHT22;8378;57.698;11.958;2022-09-09T05:24:33;23.40;25.60
16532;DHT22;8378;57.698;11.958;2022-09-09T05:26:59;23.40;25.60
16532;DHT22;8378;57.698;11.958;2022-09-09T05:29:27;23.40;25.60
16532;DHT22;8378;57.698;11.958;2022-09-09T05:31:53;23.40;25.70
16532;DHT22;8378;57.698;11.958;2022-09-09T05:34:19;23.40;25.70
16532;DHT22;8378;57.698;11.958;2022-09-09T05:36:46;23.40;25.70
16532;DHT22;8378;57.698;11.958;2022-09-09T05:39:12;23.40;25.70
16532;DHT22;8378;57.698;11.958;2022-09-09T05:41:37;23.40;25.70
16532;DHT22;8378;57.698;11.958;2022-09-09T05:44:03;23.40;25.70
16532;DHT22;8378;57.698;11.958;2022-09-09T05:46:29;23.40;25.70
16532;DHT22;8378;57.698;11.958;2022-09-09T05:48:55;23.40;25.80
16532;DHT22;8378;57.698;11.958;2022-09-09T05:51:23;23.40;25.80
16532;DHT22;8378;57.698;11.958;2022-09-09T05:53:50;23.40;25.80
16532;DHT22;8378;57.698;11.958;2022-09-09T05:56:27;23.40;25.80
16532;DHT22;8378;57.698;11.958;2022-09-09T05:58:54;23.40;25.90
16532;DHT22;8378;57.698;11.958;2022-09-09T06:01:26;23.40;25.90
16532;DHT22;8378;57.698;11.958;2022-09-09T06:03:52;23.40;25.90
16532;DHT22;8378;57.698;11.958;2022-09-09T06:06:20;23.40;25.90
16532;DHT22;8378;57.698;11.958;2022-09-09T06:08:47;23.40;25.90
16532;DHT22;8378;57.698;11.958;2022-09-09T06:13:40;23.40;25.90
16532;DHT22;8378;57.698;11.958;2022-09-09T06:16:09;23.40;26.00
16532;DHT22;8378;57.698;11.958;2022-09-09T06:18:40;23.40;26.00
16532;DHT22;8378;57.698;11.958;2022-09-09T06:21:26;23.40;26.10
16532;DHT22;8378;57.698;11.958;2022-09-09T06:23:52;23.40;26.10
16532;DHT22;8378;57.698;11.958;2022-09-09T06:26:20;23.40;26.10
16532;DHT22;8378;57.698;11.958;2022-09-09T06:28:47;23.40;26.10
16532;DHT22;8378;57.698;11.958;2022-09-09T06:31:15;23.40;26.10
16532;DHT22;8378;57.698;11.958;2022-09-09T06:33:43;23.40;26.20
16532;DHT22;8378;57.698;11.958;2022-09-09T06:36:16;23.40;26.20
16532;DHT22;8378;57.698;11.958;2022-09-09T06:38:42;23.40;26.30
16532;DHT22;8378;57.698;11.958;2022-09-09T06:41:09;23.40;26.50
16532;DHT22;8378;57.698;11.958;2022-09-09T06:43:36;23.40;26.60
16532;DHT22;8378;57.698;11.958;2022-09-09T06:46:08;23.40;26.80
16532;DHT22;8378;57.698;11.958;2022-09-09T06:48:35;23.40;26.70
16532;DHT22;8378;57.698;11.958;2022-09-09T06:51:09;23.40;26.80
16532;DHT22;8378;57.698;11.958;2022-09-09T06:53:35;23.40;26.90
16532;DHT22;8378;57.698;11.958;2022-09-09T06:56:34;23.40;26.90
16532;DHT22;8378;57.698;11.958;2022-09-09T06:59:02;23.50;26.80
16532;DHT22;8378;57.698;11.958;2022-09-09T07:01:31;23.50;26.80
16532;DHT22;8378;57.698;11.958;2022-09-09T07:03:58;23.50;26.90
16532;DHT22;8378;57.698;11.958;2022-09-09T07:06:25;23.50;26.80
16532;DHT22;8378;57.698;11.958;2022-09-09T07:08:55;23.50;26.90
16532;DHT22;8378;57.698;11.958;2022-09-09T07:11:23;23.50;26.80
16532;DHT22;8378;57.698;11.958;2022-09-09T07:13:49;23.50;26.90
16532;DHT22;8378;57.698;11.958;2022-09-09T07:16:18;23.50;26.80
16532;DHT22;8378;57.698;11.958;2022-09-09T07:18:44;23.50;26.80
16532;DHT22;8378;57.698;11.958;2022-09-09T07:21:11;23.50;26.90
16532;DHT22;8378;57.698;11.958;2022-09-09T07:23:40;23.50;26.90
16532;DHT22;8378;57.698;11.958;2022-09-09T07:26:10;23.50;27.00
16532;DHT22;8378;57.698;11.958;2022-09-09T07:28:37;23.50;27.00
16532;DHT22;8378;57.698;11.958;2022-09-09T07:31:04;23.50;27.00
16532;DHT22;8378;57.698;11.958;2022-09-09T07:33:32;23.40;26.90
16532;DHT22;8378;57.698;11.958;2022-09-09T07:36:07;23.40;26.90
16532;DHT22;8378;57.698;11.958;2022-09-09T07:38:40;23.40;27.00
16532;DHT22;8378;57.698;11.958;2022-09-09T07:41:10;23.40;27.00
16532;DHT22;8378;57.698;11.958;2022-09-09T07:43:39;23.40;27.00
16532;DHT22;8378;57.698;11.958;2022-09-09T07:46:06;23.40;27.00
16532;DHT22;8378;57.698;11.958;2022-09-09T07:48:32;23.40;27.10
16532;DHT22;8378;57.698;11.958;2022-09-09T07:51:25;23.40;27.10
16532;DHT22;8378;57.698;11.958;2022-09-09T07:53:57;23.50;27.10
16532;DHT22;8378;57.698;11.958;2022-09-09T07:56:24;23.50;27.10
16532;DHT22;8378;57.698;11.958;2022-09-09T07:58:51;23.50;27.10
16532;DHT22;8378;57.698;11.958;2022-09-09T08:01:26;23.50;27.10
16532;DHT22;8378;57.698;11.958;2022-09-09T08:04:13;23.50;27.10
16532;DHT22;8378;57.698;11.958;2022-09-09T08:06:47;23.50;27.00
16532;DHT22;8378;57.698;11.958;2022-09-09T08:09:13;23.50;27.10
16532;DHT22;8378;57.698;11.958;2022-09-09T08:11:40;23.50;27.00
16532;DHT22;8378;57.698;11.958;2022-09-09T08:14:07;23.50;27.00
16532;DHT22;8378;57.698;11.958;2022-09-09T08:16:36;23.50;26.90
16532;DHT22;8378;57.698;11.958;2022-09-09T08:19:02;23.50;26.90
16532;DHT22;8378;57.698;11.958;2022-09-09T08:21:30;23.60;27.00
16532;DHT22;8378;57.698;11.958;2022-09-09T08:23:58;23.60;26.80
16532;DHT22;8378;57.698;11.958;2022-09-09T08:26:26;23.60;26.80
16532;DHT22;8378;57.698;11.958;2022-09-09T08:28:56;23.60;26.80
16532;DHT22;8378;57.698;11.958;2022-09-09T08:31:27;23.60;26.80
16532;DHT22;8378;57.698;11.958;2022-09-09T08:33:54;23.60;26.80
16532;DHT22;8378;57.698;11.958;2022-09-09T08:36:23;23.60;26.80
16532;DHT22;8378;57.698;11.958;2022-09-09T08:38:50;23.60;26.70
16532;DHT22;8378;57.698;11.958;2022-09-09T08:49:38;23.70;26.60
16532;DHT22;8378;57.698;11.958;2022-09-09T08:52:13;23.70;26.60
16532;DHT22;8378;57.698;11.958;2022-09-09T08:54:41;23.70;26.50
16532;DHT22;8378;57.698;11.958;2022-09-09T08:57:14;23.70;26.50
16532;DHT22;8378;57.698;11.958;2022-09-09T08:59:41;23.70;26.50
16532;DHT22;8378;57.698;11.958;2022-09-09T09:05:06;23.70;26.50
16532;DHT22;8378;57.698;11.958;2022-09-09T09:07:36;23.70;26.50
16532;DHT22;8378;57.698;11.958;2022-09-09T09:12:46;23.70;26.50
16532;DHT22;8378;57.698;11.958;2022-09-09T09:15:21;23.70;26.50
16532;DHT22;8378;57.698;11.958;2022-09-09T09:17:48;23.70;26.50
16532;DHT22;8378;57.698;11.958;2022-09-09T09:20:15;23.70;26.50
16532;DHT22;8378;57.698;11.958;2022-09-09T09:22:50;23.70;26.50
16532;DHT22;8378;57.698;11.958;2022-09-09T09:25:25;23.70;26.50
16532;DHT22;8378;57.698;11.958;2022-09-09T09:28:12;23.70;26.50
16532;DHT22;8378;57.698;11.958;2022-09-09T09:35:50;23.70;26.90
16532;DHT22;8378;57.698;11.958;2022-09-09T09:38:22;23.70;26.90
16532;DHT22;8378;57.698;11.958;2022-09-09T09:40:54;23.70;27.00
16532;DHT22;8378;57.698;11.958;2022-09-09T09:43:39;23.80;27.10
16532;DHT22;8378;57.698;11.958;2022-09-09T09:46:19;23.80;27.10
16532;DHT22;8378;57.698;11.958;2022-09-09T09:48:45;23.80;27.10
16532;DHT22;8378;57.698;11.958;2022-09-09T09:51:14;23.80;27.10
16532;DHT22;8378;57.698;11.958;2022-09-09T09:53:41;23.80;27.10
16532;DHT22;8378;57.698;11.958;2022-09-09T09:56:14;23.80;27.10
16532;DHT22;8378;57.698;11.958;2022-09-09T09:58:50;23.80;27.10
16532;DHT22;8378;57.698;11.958;2022-09-09T10:01:24;23.80;27.40
16532;DHT22;8378;57.698;11.958;2022-09-09T10:03:54;23.80;27.30
16532;DHT22;8378;57.698;11.958;2022-09-09T10:06:34;23.80;27.70
16532;DHT22;8378;57.698;11.958;2022-09-09T10:09:01;23.80;27.10
16532;DHT22;8378;57.698;11.958;2022-09-09T10:14:57;23.80;27.10
16532;DHT22;8378;57.698;11.958;2022-09-09T10:17:29;23.80;27.00
16532;DHT22;8378;57.698;11.958;2022-09-09T10:22:51;23.80;27.00
16532;DHT22;8378;57.698;11.958;2022-09-09T10:27:59;23.80;26.80
16532;DHT22;8378;57.698;11.958;2022-09-09T10:30:45;23.80;26.80
16532;DHT22;8378;57.698;11.958;2022-09-09T10:38:46;23.80;26.50
16532;DHT22;8378;57.698;11.958;2022-09-09T10:52:36;23.80;26.50
16532;DHT22;8378;57.698;11.958;2022-09-09T10:55:13;23.80;26.50
16532;DHT22;8378;57.698;11.958;2022-09-09T10:57:51;23.80;26.40
16532;DHT22;8378;57.698;11.958;2022-09-09T11:00:20;23.80;26.50
16532;DHT22;8378;57.698;11.958;2022-09-09T11:03:05;23.80;26.50
16532;DHT22;8378;57.698;11.958;2022-09-09T11:05:43;23.80;26.50
16532;DHT22;8378;57.698;11.958;2022-09-09T11:08:15;23.80;26.50
16532;DHT22;8378;57.698;11.958;2022-09-09T11:13:59;23.80;26.40
16532;DHT22;8378;57.698;11.958;2022-09-09T11:19:43;23.80;26.50
16532;DHT22;8378;57.698;11.958;2022-09-09T11:22:34;23.80;27.30
16532;DHT22;8378;57.698;11.958;2022-09-09T11:25:16;23.80;27.40
16532;DHT22;8378;57.698;11.958;2022-09-09T11:38:26;23.80;27.40
16532;DHT22;8378;57.698;11.958;2022-09-09T11:41:04;23.80;27.40
16532;DHT22;8378;57.698;11.958;2022-09-09T11:43:43;23.80;27.40
16532;DHT22;8378;57.698;11.958;2022-09-09T11:46:10;23.80;27.50
16532;DHT22;8378;57.698;11.958;2022-09-09T11:48:45;23.80;27.50
16532;DHT22;8378;57.698;11.958;2022-09-09T11:51:25;23.80;27.50
16532;DHT22;8378;57.698;11.958;2022-09-09T11:53:57;23.80;27.50
16532;DHT22;8378;57.698;11.958;2022-09-09T11:56:30;23.80;27.60
16532;DHT22;8378;57.698;11.958;2022-09-09T12:01:48;23.80;27.60
16532;DHT22;8378;57.698;11.958;2022-09-09T12:04:26;23.80;27.70
16532;DHT22;8378;57.698;11.958;2022-09-09T12:07:03;23.80;27.70
16532;DHT22;8378;57.698;11.958;2022-09-09T12:09:33;23.80;27.70
16532;DHT22;8378;57.698;11.958;2022-09-09T12:17:19;23.80;27.70
16532;DHT22;8378;57.698;11.958;2022-09-09T12:19:46;23.80;27.80
16532;DHT22;8378;57.698;11.958;2022-09-09T12:22:32;23.70;27.70
16532;DHT22;8378;57.698;11.958;2022-09-09T12:28:20;23.70;27.70
16532;DHT22;8378;57.698;11.958;2022-09-09T12:33:35;23.70;27.80
16532;DHT22;8378;57.698;11.958;2022-09-09T12:36:03;23.70;27.80
16532;DHT22;8378;57.698;11.958;2022-09-09T12:38:36;23.70;27.80
16532;DHT22;8378;57.698;11.958;2022-09-09T12:41:02;23.70;27.80
16532;DHT22;8378;57.698;11.958;2022-09-09T12:43:28;23.70;27.80
16532;DHT22;8378;57.698;11.958;2022-09-09T12:46:08;23.70;27.80
16532;DHT22;8378;57.698;11.958;2022-09-09T12:48:40;23.70;27.80
16532;DHT22;8378;57.698;11.958;2022-09-09T12:51:24;23.70;27.80
16532;DHT22;8378;57.698;11.958;2022-09-09T12:53:51;23.70;27.80
16532;DHT22;8378;57.698;11.958;2022-09-09T12:56:22;23.70;27.80
16532;DHT22;8378;57.698;11.958;2022-09-09T12:58:51;23.70;28.10
16532;DHT22;8378;57.698;11.958;2022-09-09T13:01:25;23.70;28.00
16532;DHT22;8378;57.698;11.958;2022-09-09T13:03:51;23.70;28.00
16532;DHT22;8378;57.698;11.958;2022-09-09T13:06:28;23.70;28.10
16532;DHT22;8378;57.698;11.958;2022-09-09T13:08:59;23.70;28.10
16532;DHT22;8378;57.698;11.958;2022-09-09T13:11:35;23.60;28.10
16532;DHT22;8378;57.698;11.958;2022-09-09T13:14:02;23.60;28.10
16532;DHT22;8378;57.698;11.958;2022-09-09T13:16:29;23.60;28.10
16532;DHT22;8378;57.698;11.958;2022-09-09T13:19:02;23.60;28.10
16532;DHT22;8378;57.698;11.958;2022-09-09T13:21:39;23.60;28.10
16532;DHT22;8378;57.698;11.958;2022-09-09T13:24:07;23.70;28.10
16532;DHT22;8378;57.698;11.958;2022-09-09T13:26:55;23.70;28.20
16532;DHT22;8378;57.698;11.958;2022-09-09T13:29:22;23.70;28.20
16532;DHT22;8378;57.698;11.958;2022-09-09T13:31:48;23.70;28.30
16532;DHT22;8378;57.698;11.958;2022-09-09T13:34:31;23.70;28.20
16532;DHT22;8378;57.698;11.958;2022-09-09T13:37:36;23.70;28.30
16532;DHT22;8378;57.698;11.958;2022-09-09T13:40:03;23.70;28.20
16532;DHT22;8378;57.698;11.958;2022-09-09T13:42:33;23.70;28.20
16532;DHT22;8378;57.698;11.958;2022-09-09T13:45:01;23.70;28.20
16532;DHT22;8378;57.698;11.958;2022-09-09T13:47:34;23.70;28.20
16532;DHT22;8378;57.698;11.958;2022-09-09T13:52:45;23.70;28.20
16532;DHT22;8378;57.698;11.958;2022-09-09T13:55:13;23.70;28.20
16532;DHT22;8378;57.698;11.958;2022-09-09T13:57:38;23.70;28.30
16532;DHT22;8378;57.698;11.958;2022-09-09T14:00:06;23.70;28.30
16532;DHT22;8378;57.698;11.958;2022-09-09T14:02:33;23.70;28.30
16532;DHT22;8378;57.698;11.958;2022-09-09T14:05:02;23.70;28.40
16532;DHT22;8378;57.698;11.958;2022-09-09T14:07:27;23.70;28.30
16532;DHT22;8378;57.698;11.958;2022-09-09T14:09:54;23.70;28.60
16532;DHT22;8378;57.698;11.958;2022-09-09T14:12:19;23.70;29.00
16532;DHT22;8378;57.698;11.958;2022-09-09T14:14:45;23.70;29.50
16532;DHT22;8378;57.698;11.958;2022-09-09T14:17:11;23.70;29.60
16532;DHT22;8378;57.698;11.958;2022-09-09T14:19:36;23.70;29.80
16532;DHT22;8378;57.698;11.958;2022-09-09T14:22:05;23.70;29.90
16532;DHT22;8378;57.698;11.958;2022-09-09T14:24:30;23.70;29.90
16532;DHT22;8378;57.698;11.958;2022-09-09T14:26:56;23.70;30.00
16532;DHT22;8378;57.698;11.958;2022-09-09T14:29:21;23.70;30.00
16532;DHT22;8378;57.698;11.958;2022-09-09T14:31:47;23.70;30.00
16532;DHT22;8378;57.698;11.958;2022-09-09T14:34:13;23.70;29.90
16532;DHT22;8378;57.698;11.958;2022-09-09T14:36:40;23.70;29.90
16532;DHT22;8378;57.698;11.958;2022-09-09T14:39:07;23.70;29.70
16532;DHT22;8378;57.698;11.958;2022-09-09T14:41:33;23.70;29.60
16532;DHT22;8378;57.698;11.958;2022-09-09T14:43:58;23.80;29.60
16532;DHT22;8378;57.698;11.958;2022-09-09T14:46:25;23.80;29.40
16532;DHT22;8378;57.698;11.958;2022-09-09T14:48:51;23.80;29.40
16532;DHT22;8378;57.698;11.958;2022-09-09T14:51:20;23.80;29.60
16532;DHT22;8378;57.698;11.958;2022-09-09T14:53:48;23.80;29.40
16532;DHT22;8378;57.698;11.958;2022-09-09T14:56:17;23.80;29.30
16532;DHT22;8378;57.698;11.958;2022-09-09T14:58:44;23.90;29.30
16532;DHT22;8378;57.698;11.958;2022-09-09T15:01:15;23.90;28.90
16532;DHT22;8378;57.698;11.958;2022-09-09T15:03:42;23.90;28.90
16532;DHT22;8378;57.698;11.958;2022-09-09T15:06:11;23.90;28.60
16532;DHT22;8378;57.698;11.958;2022-09-09T15:08:38;23.90;28.60
16532;DHT22;8378;57.698;11.958;2022-09-09T15:11:05;23.90;28.50
16532;DHT22;8378;57.698;11.958;2022-09-09T15:13:36;24.00;28.60
16532;DHT22;8378;57.698;11.958;2022-09-09T15:16:17;24.00;28.60
16532;DHT22;8378;57.698;11.958;2022-09-09T15:18:43;24.00;28.50
16532;DHT22;8378;57.698;11.958;2022-09-09T15:21:15;24.00;28.50
16532;DHT22;8378;57.698;11.958;2022-09-09T15:23:42;24.00;28.40
16532;DHT22;8378;57.698;11.958;2022-09-09T15:26:09;24.00;28.50
16532;DHT22;8378;57.698;11.958;2022-09-09T15:28:36;24.00;28.50
16532;DHT22;8378;57.698;11.958;2022-09-09T15:31:11;24.00;28.40
16532;DHT22;8378;57.698;11.958;2022-09-09T15:33:37;24.00;28.40
16532;DHT22;8378;57.698;11.958;2022-09-09T15:36:25;24.10;28.50
16532;DHT22;8378;57.698;11.958;2022-09-09T15:38:52;24.00;28.40
16532;DHT22;8378;57.698;11.958;2022-09-09T15:41:19;24.10;28.40
16532;DHT22;8378;57.698;11.958;2022-09-09T15:43:48;24.10;29.00
16532;DHT22;8378;57.698;11.958;2022-09-09T15:46:30;24.10;29.00
16532;DHT22;8378;57.698;11.958;2022-09-09T15:49:22;24.10;29.10
16532;DHT22;8378;57.698;11.958;2022-09-09T15:51:58;24.10;29.10
16532;DHT22;8378;57.698;11.958;2022-09-09T15:54:25;24.10;28.90
16532;DHT22;8378;57.698;11.958;2022-09-09T15:56:54;24.10;28.60
16532;DHT22;8378;57.698;11.958;2022-09-09T15:59:21;24.10;28.50
16532;DHT22;8378;57.698;11.958;2022-09-09T16:01:47;24.10;28.70
16532;DHT22;8378;57.698;11.958;2022-09-09T16:04:17;24.10;28.70
16532;DHT22;8378;57.698;11.958;2022-09-09T16:06:49;24.10;28.80
16532;DHT22;8378;57.698;11.958;2022-09-09T16:09:15;24.10;28.70
16532;DHT22;8378;57.698;11.958;2022-09-09T16:11:41;24.10;28.70
16532;DHT22;8378;57.698;11.958;2022-09-09T16:14:06;24.00;28.60
16532;DHT22;8378;57.698;11.958;2022-09-09T16:16:32;24.00;28.60
16532;DHT22;8378;57.698;11.958;2022-09-09T16:19:00;24.00;28.60
16532;DHT22;8378;57.698;11.958;2022-09-09T16:21:34;24.00;28.60
16532;DHT22;8378;57.698;11.958;2022-09-09T16:24:02;24.00;28.60
16532;DHT22;8378;57.698;11.958;2022-09-09T16:26:29;24.00;28.60
16532;DHT22;8378;57.698;11.958;2022-09-09T16:28:55;24.00;28.60
16532;DHT22;8378;57.698;11.958;2022-09-09T16:31:23;24.00;28.60
16532;DHT22;8378;57.698;11.958;2022-09-09T16:33:49;23.90;28.60
16532;DHT22;8378;57.698;11.958;2022-09-09T16:36:18;23.90;28.60
16532;DHT22;8378;57.698;11.958;2022-09-09T16:38:44;23.90;28.60
16532;DHT22;8378;57.698;11.958;2022-09-09T16:41:11;23.90;28.60
16532;DHT22;8378;57.698;11.958;2022-09-09T16:43:37;23.90;28.60
16532;DHT22;8378;57.698;11.958;2022-09-09T16:46:11;23.90;28.60
16532;DHT22;8378;57.698;11.958;2022-09-09T16:48:37;23.90;28.60
16532;DHT22;8378;57.698;11.958;2022-09-09T16:51:08;23.80;28.60
16532;DHT22;8378;57.698;11.958;2022-09-09T16:53:36;23.80;28.50
16532;DHT22;8378;57.698;11.958;2022-09-09T16:56:08;23.80;28.60
16532;DHT22;8378;57.698;11.958;2022-09-09T16:58:34;23.80;28.50
16532;DHT22;8378;57.698;11.958;2022-09-09T17:01:01;23.80;29.10
16532;DHT22;8378;57.698;11.958;2022-09-09T17:03:30;23.80;28.60
16532;DHT22;8378;57.698;11.958;2022-09-09T17:05:57;23.80;28.60
16532;DHT22;8378;57.698;11.958;2022-09-09T17:08:23;23.80;28.60
16532;DHT22;8378;57.698;11.958;2022-09-09T17:10:49;23.80;28.60
16532;DHT22;8378;57.698;11.958;2022-09-09T17:13:16;23.80;28.60
16532;DHT22;8378;57.698;11.958;2022-09-09T17:15:44;23.80;28.60
16532;DHT22;8378;57.698;11.958;2022-09-09T17:18:11;23.70;28.50
16532;DHT22;8378;57.698;11.958;2022-09-09T17:20:41;23.70;28.60
16532;DHT22;8378;57.698;11.958;2022-09-09T17:23:08;23.70;28.60
16532;DHT22;8378;57.698;11.958;2022-09-09T17:25:35;23.70;28.70
16532;DHT22;8378;57.698;11.958;2022-09-09T17:28:02;23.70;28.60
16532;DHT22;8378;57.698;11.958;2022-09-09T17:30:30;23.70;28.70
16532;DHT22;8378;57.698;11.958;2022-09-09T17:32:59;23.70;28.70
16532;DHT22;8378;57.698;11.958;2022-09-09T17:35:25;23.70;28.80
16532;DHT22;8378;57.698;11.958;2022-09-09T17:37:53;23.70;28.70
16532;DHT22;8378;57.698;11.958;2022-09-09T17:40:20;23.70;28.90